Time;durP1;ratioP1;P1;durP2;ratioP2;P2;SDS_P1;SDS_P2;PMS_P1;PMS_P2;Temp;Humidity;BMP_temperature;BMP_pressure;BME280_temperature;BME280_humidity;BME280_pressure;Samples;Min_cycle;Max_cycle;Signal;HPM_P1;HPM_P2
2022/06/27 00:01:33;;;;;;;3.70;2.40;;;;;;;;;;5068579;28;20031;-67
2022/06/27 00:03:58;;;;;;;3.92;2.45;;;;;;;;;;5066356;28;20584;-67
2022/06/27 00:06:24;;;;;;;3.53;2.65;;;;;;;;;;5060955;28;20423;-67
2022/06/27 00:08:50;;;;;;;2.85;2.50;;;;;;;;;;5074735;28;20103;-67
2022/06/27 00:11:16;;;;;;;2.78;2.47;;;;;;;;;;5066934;28;20088;-66
2022/06/27 00:13:42;;;;;;;3.50;2.83;;;;;;;;;;5067247;28;20028;-67
2022/06/27 00:16:07;;;;;;;10.07;2.50;;;;;;;;;;5065822;28;20032;-67
2022/06/27 00:18:32;;;;;;;4.25;2.70;;;;;;;;;;5067563;28;20527;-66
2022/06/27 00:20:58;;;;;;;4.78;2.63;;;;;;;;;;5063960;28;20123;-67
2022/06/27 00:23:23;;;;;;;6.03;2.75;;;;;;;;;;5066282;28;20124;-67
2022/06/27 00:25:48;;;;;;;3.75;2.80;;;;;;;;;;5059682;28;20079;-67
2022/06/27 00:28:14;;;;;;;4.07;2.40;;;;;;;;;;5061061;28;20024;-66
2022/06/27 00:30:39;;;;;;;5.35;2.88;;;;;;;;;;5067118;28;20063;-67
2022/06/27 00:33:05;;;;;;;6.03;2.83;;;;;;;;;;5064035;28;20483;-67
2022/06/27 00:35:30;;;;;;;5.43;2.60;;;;;;;;;;5066644;28;20447;-66
2022/06/27 00:37:56;;;;;;;3.42;2.50;;;;;;;;;;5067424;28;20510;-67
2022/06/27 00:40:21;;;;;;;2.92;2.50;;;;;;;;;;5065407;28;20020;-66
2022/06/27 00:42:46;;;;;;;4.03;2.60;;;;;;;;;;5066460;28;20486;-66
2022/06/27 00:45:12;;;;;;;4.05;2.55;;;;;;;;;;5065276;28;20055;-67
2022/06/27 00:47:37;;;;;;;4.90;2.47;;;;;;;;;;5066308;28;20051;-66
2022/06/27 00:50:06;;;;;;;3.50;2.65;;;;;;;;;;5064768;28;20598;-66
2022/06/27 00:52:31;;;;;;;3.58;2.80;;;;;;;;;;5067350;28;20150;-67
2022/06/27 00:54:57;;;;;;;3.33;2.70;;;;;;;;;;5070276;28;20127;-66
2022/06/27 00:57:23;;;;;;;3.83;3.00;;;;;;;;;;5051501;28;20135;-66
2022/06/27 00:59:48;;;;;;;4.00;3.17;;;;;;;;;;5065821;28;20036;-66
2022/06/27 01:02:14;;;;;;;3.80;2.60;;;;;;;;;;5065246;28;20032;-66
2022/06/27 01:04:39;;;;;;;3.95;2.72;;;;;;;;;;5059475;28;20035;-66
2022/06/27 01:07:06;;;;;;;5.90;2.90;;;;;;;;;;5048003;28;20033;-67
2022/06/27 01:09:32;;;;;;;5.28;2.88;;;;;;;;;;5048418;28;20037;-66
2022/06/27 01:11:58;;;;;;;6.82;2.90;;;;;;;;;;5058967;28;20093;-66
2022/06/27 01:14:23;;;;;;;5.55;2.85;;;;;;;;;;5064229;28;20382;-66
2022/06/27 01:16:49;;;;;;;4.55;2.70;;;;;;;;;;5076018;28;20026;-66
2022/06/27 01:19:17;;;;;;;3.75;2.80;;;;;;;;;;5065628;28;20055;-66
2022/06/27 01:21:47;;;;;;;6.13;2.88;;;;;;;;;;5065354;28;20523;-67
2022/06/27 01:24:12;;;;;;;5.28;2.90;;;;;;;;;;5055119;28;20494;-66
2022/06/27 01:26:38;;;;;;;5.40;3.10;;;;;;;;;;5067378;28;20043;-66
2022/06/27 01:29:04;;;;;;;4.10;3.10;;;;;;;;;;5064700;28;20032;-67
2022/06/27 01:31:30;;;;;;;4.90;2.83;;;;;;;;;;5067976;28;20048;-67
2022/06/27 01:33:55;;;;;;;5.47;2.95;;;;;;;;;;5065101;28;20039;-66
2022/06/27 01:39:05;;;;;;;5.90;3.17;;;;;;;;;;5064785;28;20082;-67
2022/06/27 01:41:30;;;;;;;4.85;3.28;;;;;;;;;;5064144;28;20044;-66
2022/06/27 01:43:55;;;;;;;4.38;3.10;;;;;;;;;;5067045;28;20090;-66
2022/06/27 01:46:21;;;;;;;3.95;2.83;;;;;;;;;;5068015;28;20533;-67
2022/06/27 01:48:46;;;;;;;6.28;3.42;;;;;;;;;;5068128;28;20071;-66
2022/06/27 01:51:12;;;;;;;5.35;3.08;;;;;;;;;;5054025;28;20531;-67
2022/06/27 01:53:37;;;;;;;3.55;2.80;;;;;;;;;;5073054;28;20089;-66
2022/06/27 01:56:04;;;;;;;6.43;2.97;;;;;;;;;;5067120;28;20102;-66
2022/06/27 01:58:29;;;;;;;5.43;3.20;;;;;;;;;;5057069;28;20506;-66
2022/06/27 02:00:55;;;;;;;6.28;3.08;;;;;;;;;;5060238;28;20036;-67
2022/06/27 02:03:23;;;;;;;5.75;3.50;;;;;;;;;;5054518;28;20036;-66
2022/06/27 02:05:51;;;;;;;4.25;3.42;;;;;;;;;;5066985;28;20362;-66
2022/06/27 02:08:19;;;;;;;7.20;3.40;;;;;;;;;;5071152;28;20032;-67
2022/06/27 02:10:45;;;;;;;4.18;2.95;;;;;;;;;;5065846;28;20047;-67
2022/06/27 02:13:12;;;;;;;7.22;3.38;;;;;;;;;;5064603;28;20025;-66
2022/06/27 02:16:09;;;;;;;4.63;3.10;;;;;;;;;;5065481;28;20033;-66
2022/06/27 02:18:36;;;;;;;5.00;3.30;;;;;;;;;;5054290;28;20029;-66
2022/06/27 02:21:02;;;;;;;5.38;3.38;;;;;;;;;;5066157;28;20123;-67
2022/06/27 02:23:28;;;;;;;5.88;3.10;;;;;;;;;;5063503;28;20484;-66
2022/06/27 02:25:54;;;;;;;4.25;3.08;;;;;;;;;;5060637;28;20096;-66
2022/06/27 02:28:22;;;;;;;5.97;3.40;;;;;;;;;;5064363;28;20033;-66
2022/06/27 02:30:48;;;;;;;5.93;3.88;;;;;;;;;;5066143;28;20040;-66
2022/06/27 02:33:13;;;;;;;6.00;3.63;;;;;;;;;;5064106;28;20132;-66
2022/06/27 02:35:40;;;;;;;6.95;3.67;;;;;;;;;;5066808;28;20116;-67
2022/06/27 02:38:09;;;;;;;8.60;3.58;;;;;;;;;;5065679;28;20123;-66
2022/06/27 02:40:36;;;;;;;7.05;3.78;;;;;;;;;;5067133;28;20025;-66
2022/06/27 02:43:02;;;;;;;7.78;3.10;;;;;;;;;;5065664;28;20575;-66
2022/06/27 02:45:31;;;;;;;7.47;3.67;;;;;;;;;;5064739;28;20037;-67
2022/06/27 02:48:01;;;;;;;6.85;3.35;;;;;;;;;;5064404;28;20044;-67
2022/06/27 02:50:29;;;;;;;5.30;3.10;;;;;;;;;;5066678;28;20040;-66
2022/06/27 02:52:56;;;;;;;6.20;3.38;;;;;;;;;;5070655;28;20036;-66
2022/06/27 02:55:27;;;;;;;7.00;3.55;;;;;;;;;;5068945;28;20031;-66
2022/06/27 02:58:02;;;;;;;8.00;3.10;;;;;;;;;;5060665;28;20039;-66
2022/06/27 03:00:29;;;;;;;6.93;3.30;;;;;;;;;;5069244;28;20045;-65
2022/06/27 03:02:56;;;;;;;7.63;3.40;;;;;;;;;;5070325;28;20082;-67
2022/06/27 03:05:22;;;;;;;16.55;8.90;;;;;;;;;;5071469;28;20154;-66
2022/06/27 03:07:47;;;;;;;10.63;4.40;;;;;;;;;;5069222;28;20016;-66
2022/06/27 03:10:13;;;;;;;9.38;4.10;;;;;;;;;;5069973;28;20032;-66
2022/06/27 03:12:39;;;;;;;9.50;3.72;;;;;;;;;;5069758;28;20048;-66
2022/06/27 03:15:05;;;;;;;10.25;4.30;;;;;;;;;;5067683;28;20502;-66
2022/06/27 03:17:30;;;;;;;8.10;3.70;;;;;;;;;;5069927;28;20177;-66
2022/06/27 03:19:56;;;;;;;7.03;3.92;;;;;;;;;;5067800;28;20032;-66
2022/06/27 03:22:22;;;;;;;7.20;3.53;;;;;;;;;;5062886;28;20029;-66
2022/06/27 03:24:47;;;;;;;6.78;3.30;;;;;;;;;;5064057;28;20033;-66
2022/06/27 03:27:12;;;;;;;9.63;3.90;;;;;;;;;;5058652;28;20040;-66
2022/06/27 03:29:38;;;;;;;7.80;3.38;;;;;;;;;;5068201;28;20090;-67
2022/06/27 03:32:04;;;;;;;6.25;3.60;;;;;;;;;;5067245;28;20101;-67
2022/06/27 03:34:29;;;;;;;12.52;3.97;;;;;;;;;;5066490;28;20033;-66
2022/06/27 03:36:55;;;;;;;10.98;3.60;;;;;;;;;;5068151;28;20409;-66
2022/06/27 03:39:21;;;;;;;12.25;4.30;;;;;;;;;;5068894;28;20033;-66
2022/06/27 03:41:46;;;;;;;6.78;3.63;;;;;;;;;;5068175;28;20032;-66
2022/06/27 03:44:11;;;;;;;9.48;3.50;;;;;;;;;;5068716;28;20040;-66
2022/06/27 03:46:37;;;;;;;7.68;3.53;;;;;;;;;;5068520;28;20025;-66
2022/06/27 03:51:48;;;;;;;10.73;4.10;;;;;;;;;;5068636;28;20429;-66
2022/06/27 03:54:14;;;;;;;11.05;3.80;;;;;;;;;;5068209;28;20497;-66
2022/06/27 03:56:39;;;;;;;6.72;3.35;;;;;;;;;;5067960;28;20045;-66
2022/06/27 03:59:05;;;;;;;13.57;3.97;;;;;;;;;;5064388;28;20039;-66
2022/06/27 04:01:30;;;;;;;10.82;3.65;;;;;;;;;;5066258;28;20039;-67
2022/06/27 04:03:56;;;;;;;7.55;3.35;;;;;;;;;;5067824;28;20584;-66
2022/06/27 04:06:21;;;;;;;12.52;3.80;;;;;;;;;;5070040;28;20071;-66
2022/06/27 04:08:47;;;;;;;9.20;4.00;;;;;;;;;;5069893;28;20123;-66
2022/06/27 04:11:12;;;;;;;10.63;3.70;;;;;;;;;;5068102;28;20111;-66
2022/06/27 04:13:37;;;;;;;10.10;3.50;;;;;;;;;;5059259;28;20021;-66
2022/06/27 04:16:03;;;;;;;6.15;3.67;;;;;;;;;;5061728;28;20040;-67
2022/06/27 04:18:28;;;;;;;7.65;4.20;;;;;;;;;;5068297;28;20433;-67
2022/06/27 04:20:54;;;;;;;5.70;3.42;;;;;;;;;;5067805;28;20074;-67
2022/06/27 04:23:19;;;;;;;9.70;4.30;;;;;;;;;;5057835;28;20560;-66
2022/06/27 04:25:44;;;;;;;7.75;4.00;;;;;;;;;;5068774;28;20035;-66
2022/06/27 04:28:10;;;;;;;6.88;3.83;;;;;;;;;;5068160;28;20104;-66
2022/06/27 04:30:35;;;;;;;13.50;4.43;;;;;;;;;;5067802;28;20025;-66
2022/06/27 04:33:01;;;;;;;14.07;4.20;;;;;;;;;;5069167;28;20086;-67
2022/06/27 04:35:26;;;;;;;11.40;4.20;;;;;;;;;;5067014;28;20021;-66
2022/06/27 04:37:53;;;;;;;15.75;4.13;;;;;;;;;;5066741;28;20108;-66
2022/06/27 04:40:19;;;;;;;10.82;4.40;;;;;;;;;;5067566;28;20055;-66
2022/06/27 04:42:48;;;;;;;10.63;4.60;;;;;;;;;;5067119;28;20045;-68
2022/06/27 04:45:14;;;;;;;10.18;4.63;;;;;;;;;;5065712;28;20047;-68
2022/06/27 04:47:43;;;;;;;11.30;4.00;;;;;;;;;;5050122;28;20060;-69
2022/06/27 04:50:12;;;;;;;12.68;6.22;;;;;;;;;;5064039;28;20123;-68
2022/06/27 04:52:38;;;;;;;10.00;3.90;;;;;;;;;;5066953;28;20522;-69
2022/06/27 04:55:08;;;;;;;10.48;4.15;;;;;;;;;;5067789;28;20025;-69
2022/06/27 04:57:35;;;;;;;10.65;4.00;;;;;;;;;;5068317;28;20041;-69
2022/06/27 05:00:03;;;;;;;11.18;3.92;;;;;;;;;;5064929;28;20585;-68
2022/06/27 05:02:29;;;;;;;10.80;3.67;;;;;;;;;;5065689;28;20045;-69
2022/06/27 05:04:54;;;;;;;10.95;4.20;;;;;;;;;;5067018;28;20119;-69
2022/06/27 05:07:19;;;;;;;7.22;4.03;;;;;;;;;;5068822;28;20027;-69
2022/06/27 05:09:45;;;;;;;9.52;4.68;;;;;;;;;;5067586;28;20036;-69
2022/06/27 05:12:11;;;;;;;12.15;4.15;;;;;;;;;;5079347;28;20116;-69
2022/06/27 05:14:36;;;;;;;11.55;4.32;;;;;;;;;;5066186;28;20029;-68
2022/06/27 05:17:02;;;;;;;6.82;4.15;;;;;;;;;;5054532;28;20114;-69
2022/06/27 05:19:27;;;;;;;10.40;4.53;;;;;;;;;;5066149;28;20671;-69
2022/06/27 05:21:52;;;;;;;9.80;4.18;;;;;;;;;;5065609;28;20394;-69
2022/06/27 05:24:18;;;;;;;10.50;4.20;;;;;;;;;;5058690;28;20048;-69
2022/06/27 05:26:45;;;;;;;13.68;4.55;;;;;;;;;;5063631;28;20086;-68
2022/06/27 05:29:11;;;;;;;7.13;4.43;;;;;;;;;;5066309;28;20109;-69
2022/06/27 05:31:36;;;;;;;9.85;4.15;;;;;;;;;;5066840;28;20020;-69
2022/06/27 05:34:01;;;;;;;8.80;4.38;;;;;;;;;;5065216;28;20044;-69
2022/06/27 05:36:27;;;;;;;7.68;4.32;;;;;;;;;;5058510;28;20595;-69
2022/06/27 05:38:53;;;;;;;10.60;4.60;;;;;;;;;;5065296;28;20036;-69
2022/06/27 05:41:18;;;;;;;6.43;3.97;;;;;;;;;;5063832;28;20039;-70
2022/06/27 05:43:45;;;;;;;9.48;4.00;;;;;;;;;;5049364;28;20779;-70
2022/06/27 05:46:10;;;;;;;14.13;4.80;;;;;;;;;;5055750;28;20059;-69
2022/06/27 05:48:37;;;;;;;8.80;4.80;;;;;;;;;;5063564;28;20060;-69
2022/06/27 05:51:02;;;;;;;9.85;4.40;;;;;;;;;;5077575;28;20108;-70
2022/06/27 05:53:28;;;;;;;16.08;4.10;;;;;;;;;;5069572;28;20079;-70
2022/06/27 05:55:54;;;;;;;9.82;4.03;;;;;;;;;;5067394;28;20032;-69
2022/06/27 05:58:20;;;;;;;5.63;3.97;;;;;;;;;;5059503;28;20028;-69
2022/06/27 06:00:45;;;;;;;22.10;5.60;;;;;;;;;;5064453;28;20036;-69
2022/06/27 06:03:11;;;;;;;13.32;5.80;;;;;;;;;;5060848;28;20029;-69
2022/06/27 06:05:37;;;;;;;11.18;5.47;;;;;;;;;;5054867;28;20033;-69
2022/06/27 06:08:04;;;;;;;9.02;4.32;;;;;;;;;;5055236;28;20040;-69
2022/06/27 06:10:32;;;;;;;6.82;4.22;;;;;;;;;;5054742;28;20528;-69
2022/06/27 06:12:58;;;;;;;9.13;4.90;;;;;;;;;;5053833;28;20040;-69
2022/06/27 06:15:23;;;;;;;6.80;4.75;;;;;;;;;;5053050;28;20055;-69
2022/06/27 06:17:49;;;;;;;9.60;4.85;;;;;;;;;;5057542;28;20049;-70
2022/06/27 06:20:15;;;;;;;6.68;4.43;;;;;;;;;;5068877;28;20036;-70
2022/06/27 06:22:41;;;;;;;8.23;4.88;;;;;;;;;;5057021;28;20496;-69
2022/06/27 06:25:07;;;;;;;7.55;4.25;;;;;;;;;;5054780;28;20032;-70
2022/06/27 06:27:35;;;;;;;12.70;5.38;;;;;;;;;;5066324;28;20175;-70
2022/06/27 06:30:02;;;;;;;6.57;4.63;;;;;;;;;;5072028;28;20047;-70
2022/06/27 06:32:28;;;;;;;8.02;5.05;;;;;;;;;;5068258;28;20050;-69
2022/06/27 06:34:53;;;;;;;10.68;4.70;;;;;;;;;;5072622;28;20494;-69
2022/06/27 06:37:19;;;;;;;12.63;5.20;;;;;;;;;;5073564;28;20033;-69
2022/06/27 06:39:44;;;;;;;11.05;4.80;;;;;;;;;;5072146;28;20117;-69
2022/06/27 06:42:11;;;;;;;12.80;5.07;;;;;;;;;;5073003;28;20064;-69
2022/06/27 06:44:36;;;;;;;6.35;4.57;;;;;;;;;;5067980;28;20522;-70
2022/06/27 06:47:02;;;;;;;9.00;4.90;;;;;;;;;;5066840;28;20048;-69
2022/06/27 06:49:28;;;;;;;8.93;4.93;;;;;;;;;;5061666;28;20536;-69
2022/06/27 06:51:53;;;;;;;9.55;4.50;;;;;;;;;;5066231;28;20037;-69
2022/06/27 06:54:20;;;;;;;8.02;4.57;;;;;;;;;;5067505;28;20028;-68
2022/06/27 06:56:49;;;;;;;8.75;4.25;;;;;;;;;;5068505;28;20033;-70
2022/06/27 06:59:15;;;;;;;8.95;4.38;;;;;;;;;;5068841;28;20036;-70
2022/06/27 07:01:41;;;;;;;8.27;4.05;;;;;;;;;;5069787;28;20024;-70
2022/06/27 07:04:07;;;;;;;7.95;4.90;;;;;;;;;;5067138;28;20021;-70
2022/06/27 07:06:33;;;;;;;7.75;4.68;;;;;;;;;;5068804;28;20506;-70
2022/06/27 07:09:00;;;;;;;9.32;4.82;;;;;;;;;;5065285;28;20052;-69
2022/06/27 07:11:28;;;;;;;7.03;4.47;;;;;;;;;;5060125;28;20035;-69
2022/06/27 07:13:55;;;;;;;6.78;4.53;;;;;;;;;;5064959;28;20387;-70
2022/06/27 07:16:21;;;;;;;8.27;4.43;;;;;;;;;;5066249;28;20555;-70
2022/06/27 07:18:48;;;;;;;9.27;5.00;;;;;;;;;;5060408;28;20040;-70
2022/06/27 07:21:19;;;;;;;8.63;5.00;;;;;;;;;;5064266;28;20228;-70
2022/06/27 07:23:49;;;;;;;8.60;4.70;;;;;;;;;;5063021;28;20559;-70
2022/06/27 07:26:17;;;;;;;9.43;5.25;;;;;;;;;;5069058;28;20033;-70
2022/06/27 07:28:43;;;;;;;13.27;6.55;;;;;;;;;;5069026;28;20028;-69
2022/06/27 07:31:11;;;;;;;11.95;6.47;;;;;;;;;;5064687;28;21064;-70
2022/06/27 07:33:38;;;;;;;18.55;8.68;;;;;;;;;;5055066;28;20036;-70
2022/06/27 07:36:05;;;;;;;19.33;9.23;;;;;;;;;;5064102;28;20086;-70
2022/06/27 07:38:32;;;;;;;19.27;10.15;;;;;;;;;;5055711;28;20105;-69
2022/06/27 07:40:58;;;;;;;11.32;6.57;;;;;;;;;;5060785;28;20081;-69
2022/06/27 07:43:24;;;;;;;12.63;5.50;;;;;;;;;;5060923;28;20044;-70
2022/06/27 07:45:50;;;;;;;12.43;6.70;;;;;;;;;;5061669;28;20043;-70
2022/06/27 07:48:19;;;;;;;13.43;7.40;;;;;;;;;;5068653;28;20090;-70
2022/06/27 07:50:46;;;;;;;13.35;7.93;;;;;;;;;;5060508;28;20032;-69
2022/06/27 07:53:13;;;;;;;13.70;6.90;;;;;;;;;;5059764;28;20082;-70
2022/06/27 07:55:49;;;;;;;10.02;5.47;;;;;;;;;;5082747;28;20417;-68
2022/06/27 07:58:19;;;;;;;7.65;4.72;;;;;;;;;;5064208;28;20029;-68
2022/06/27 08:00:47;;;;;;;10.65;4.72;;;;;;;;;;5068889;28;20196;-69
2022/06/27 08:05:58;;;;;;;9.85;4.55;;;;;;;;;;5064726;28;20044;-68
2022/06/27 08:08:26;;;;;;;9.95;5.18;;;;;;;;;;5058847;28;20032;-68
2022/06/27 08:10:52;;;;;;;15.20;5.80;;;;;;;;;;5074799;28;20123;-68
2022/06/27 08:13:18;;;;;;;10.32;5.35;;;;;;;;;;5062216;28;20410;-68
2022/06/27 08:15:45;;;;;;;9.10;4.82;;;;;;;;;;5058746;28;20037;-69
2022/06/27 08:18:11;;;;;;;10.10;5.53;;;;;;;;;;5067386;28;20083;-68
2022/06/27 08:20:37;;;;;;;10.25;5.18;;;;;;;;;;5068022;28;20561;-68
2022/06/27 08:23:03;;;;;;;12.15;5.28;;;;;;;;;;5061961;28;20086;-68
2022/06/27 08:25:29;;;;;;;12.15;5.32;;;;;;;;;;5067751;28;20077;-68
2022/06/27 08:27:55;;;;;;;12.15;5.50;;;;;;;;;;5064453;28;20126;-68
2022/06/27 08:30:25;;;;;;;11.68;5.43;;;;;;;;;;5059019;28;20037;-68
2022/06/27 08:32:55;;;;;;;9.18;5.50;;;;;;;;;;5046554;28;20430;-68
2022/06/27 08:35:21;;;;;;;10.65;4.97;;;;;;;;;;5049014;28;20070;-68
2022/06/27 08:37:47;;;;;;;11.65;5.90;;;;;;;;;;5059462;28;20031;-68
2022/06/27 08:40:15;;;;;;;10.60;5.18;;;;;;;;;;5071958;28;20412;-69
2022/06/27 08:42:40;;;;;;;10.85;5.18;;;;;;;;;;5062372;28;20110;-68
2022/06/27 08:45:08;;;;;;;15.57;5.75;;;;;;;;;;5059368;28;20033;-68
2022/06/27 08:47:34;;;;;;;9.57;5.18;;;;;;;;;;5064737;28;20044;-69
2022/06/27 08:50:01;;;;;;;9.45;5.38;;;;;;;;;;5055250;28;20469;-69
2022/06/27 08:52:27;;;;;;;10.68;5.88;;;;;;;;;;5064181;28;20127;-69
2022/06/27 08:54:56;;;;;;;9.85;5.47;;;;;;;;;;5066287;28;20036;-69
2022/06/27 08:57:22;;;;;;;10.55;5.05;;;;;;;;;;5069233;28;20036;-69
2022/06/27 08:59:53;;;;;;;9.70;4.93;;;;;;;;;;5068287;28;20094;-69
2022/06/27 09:02:23;;;;;;;11.38;4.60;;;;;;;;;;5064970;28;20036;-69
2022/06/27 09:04:59;;;;;;;7.75;4.95;;;;;;;;;;5060373;28;20033;-69
2022/06/27 09:07:50;;;;;;;11.85;4.75;;;;;;;;;;5062259;28;20552;-69
2022/06/27 09:10:30;;;;;;;10.02;4.30;;;;;;;;;;5062368;28;20665;-68
2022/06/27 09:12:58;;;;;;;12.07;4.50;;;;;;;;;;5066574;28;20178;-69
2022/06/27 09:15:42;;;;;;;7.55;4.25;;;;;;;;;;5067266;28;20097;-68
2022/06/27 09:18:09;;;;;;;31.67;5.18;;;;;;;;;;5067731;28;20044;-67
2022/06/27 09:20:49;;;;;;;9.90;4.25;;;;;;;;;;5061034;28;20041;-68
2022/06/27 09:23:25;;;;;;;9.10;3.97;;;;;;;;;;5056347;28;20127;-68
2022/06/27 09:26:08;;;;;;;9.50;4.35;;;;;;;;;;5066137;28;20090;-68
2022/06/27 09:28:43;;;;;;;8.32;4.30;;;;;;;;;;5066379;28;20020;-68
2022/06/27 09:31:13;;;;;;;10.70;4.45;;;;;;;;;;5069436;28;20036;-68
2022/06/27 09:33:41;;;;;;;11.13;4.68;;;;;;;;;;5066808;28;20040;-68
2022/06/27 09:36:12;;;;;;;7.53;4.05;;;;;;;;;;5064078;28;20029;-68
2022/06/27 09:38:42;;;;;;;8.30;4.40;;;;;;;;;;5064290;28;20036;-68
2022/06/27 09:41:11;;;;;;;8.32;4.03;;;;;;;;;;5066781;28;20048;-68
2022/06/27 09:43:41;;;;;;;6.88;3.97;;;;;;;;;;5066993;28;20596;-68
2022/06/27 09:46:09;;;;;;;11.43;4.72;;;;;;;;;;5066985;28;20079;-68
2022/06/27 09:48:37;;;;;;;7.40;4.22;;;;;;;;;;5065780;28;20044;-67
2022/06/27 09:51:03;;;;;;;8.18;4.40;;;;;;;;;;5056085;28;20036;-68
2022/06/27 09:53:29;;;;;;;14.82;5.28;;;;;;;;;;5066646;28;20509;-68
2022/06/27 09:55:56;;;;;;;17.63;6.00;;;;;;;;;;5068666;28;20028;-67
2022/06/27 09:58:22;;;;;;;10.10;5.03;;;;;;;;;;5068749;28;20090;-68
2022/06/27 10:00:48;;;;;;;8.02;4.72;;;;;;;;;;5061076;28;20462;-67
2022/06/27 10:03:16;;;;;;;11.55;5.50;;;;;;;;;;5065451;28;20123;-68
2022/06/27 10:05:43;;;;;;;9.45;4.93;;;;;;;;;;5066055;28;20128;-67
2022/06/27 10:08:09;;;;;;;8.50;4.47;;;;;;;;;;5065660;28;20043;-68
2022/06/27 10:11:09;;;;;;;8.48;4.28;;;;;;;;;;5065496;28;20032;-67
2022/06/27 10:13:36;;;;;;;12.30;4.30;;;;;;;;;;5046424;28;20056;-68
2022/06/27 10:16:13;;;;;;;12.57;4.60;;;;;;;;;;5065625;28;20028;-68
2022/06/27 10:19:03;;;;;;;6.03;4.10;;;;;;;;;;5064269;28;20086;-68
2022/06/27 10:21:36;;;;;;;7.80;4.00;;;;;;;;;;5064167;28;20121;-67
2022/06/27 10:24:26;;;;;;;8.02;4.00;;;;;;;;;;5065520;28;20036;-67
2022/06/27 10:26:57;;;;;;;9.70;4.32;;;;;;;;;;5064561;28;20054;-67
2022/06/27 10:29:28;;;;;;;9.68;4.30;;;;;;;;;;5063068;28;20112;-67
2022/06/27 10:31:55;;;;;;;7.68;3.45;;;;;;;;;;5064011;28;20116;-67
2022/06/27 10:34:38;;;;;;;9.00;4.43;;;;;;;;;;5072760;28;20033;-68
2022/06/27 10:37:24;;;;;;;7.55;3.83;;;;;;;;;;5060673;28;20502;-67
2022/06/27 10:40:18;;;;;;;6.60;4.40;;;;;;;;;;5053871;28;20044;-67
2022/06/27 10:42:43;;;;;;;8.82;3.95;;;;;;;;;;5056493;28;20040;-67
2022/06/27 10:45:21;;;;;;;6.72;4.50;;;;;;;;;;5064900;28;20028;-67
2022/06/27 10:47:57;;;;;;;9.90;4.28;;;;;;;;;;5061965;28;20055;-67
2022/06/27 10:50:24;;;;;;;8.13;4.47;;;;;;;;;;5049613;28;20025;-68
2022/06/27 10:52:51;;;;;;;8.90;4.40;;;;;;;;;;5063211;28;20075;-67
2022/06/27 10:55:30;;;;;;;7.97;5.00;;;;;;;;;;5065368;28;21832;-67
2022/06/27 10:57:57;;;;;;;9.05;5.57;;;;;;;;;;5057648;28;20036;-68
2022/06/27 11:00:41;;;;;;;12.23;5.82;;;;;;;;;;5064941;28;20040;-67
2022/06/27 11:03:28;;;;;;;10.23;5.40;;;;;;;;;;5056659;28;20033;-67
2022/06/27 11:06:04;;;;;;;8.02;3.83;;;;;;;;;;5066814;28;20540;-67
2022/06/27 11:08:33;;;;;;;7.13;3.10;;;;;;;;;;5067141;28;20028;-68
2022/06/27 11:10:59;;;;;;;8.43;4.72;;;;;;;;;;5065098;28;20036;-67
2022/06/27 11:13:39;;;;;;;24.77;5.75;;;;;;;;;;5063171;28;20020;-68
2022/06/27 11:16:05;;;;;;;17.95;6.35;;;;;;;;;;5075675;28;20405;-68
2022/06/27 11:18:41;;;;;;;8.80;4.55;;;;;;;;;;5067388;28;20839;-68
2022/06/27 11:21:09;;;;;;;15.07;5.32;;;;;;;;;;5076167;28;20123;-68
2022/06/27 11:24:11;;;;;;;23.10;6.10;;;;;;;;;;5069231;28;20109;-67
2022/06/27 11:26:47;;;;;;;7.20;4.15;;;;;;;;;;5035398;28;20049;-66
2022/06/27 11:32:05;;;;;;;5.10;2.95;;;;;;;;;;5068389;28;20493;-66
2022/06/27 11:34:34;;;;;;;4.30;2.55;;;;;;;;;;5069964;28;20032;-66
2022/06/27 11:37:03;;;;;;;10.02;2.47;;;;;;;;;;5065925;28;20027;-66
2022/06/27 11:39:31;;;;;;;5.18;2.45;;;;;;;;;;5063638;28;20424;-65
2022/06/27 11:41:58;;;;;;;5.00;2.33;;;;;;;;;;5070602;28;20147;-65
2022/06/27 11:44:25;;;;;;;6.70;3.45;;;;;;;;;;5055631;28;20075;-66
2022/06/27 11:46:51;;;;;;;5.38;3.67;;;;;;;;;;5060324;28;20037;-66
2022/06/27 11:49:35;;;;;;;7.10;3.22;;;;;;;;;;5078472;28;20021;-66
2022/06/27 11:52:12;;;;;;;5.65;3.35;;;;;;;;;;5061009;28;20047;-67
2022/06/27 11:54:42;;;;;;;3.42;2.80;;;;;;;;;;5048175;28;20068;-66
2022/06/27 11:57:20;;;;;;;4.40;2.95;;;;;;;;;;5060257;28;20037;-67
2022/06/27 11:59:50;;;;;;;9.25;2.10;;;;;;;;;;5049924;28;20040;-66
2022/06/27 12:02:26;;;;;;;4.78;2.00;;;;;;;;;;5058363;28;20472;-67
2022/06/27 12:05:02;;;;;;;7.30;2.47;;;;;;;;;;5048860;28;20025;-67
2022/06/27 12:07:27;;;;;;;4.22;2.38;;;;;;;;;;5058938;28;20379;-67
2022/06/27 12:09:52;;;;;;;3.70;2.55;;;;;;;;;;5075649;28;20086;-67
2022/06/27 12:12:20;;;;;;;3.20;2.20;;;;;;;;;;5070683;28;20029;-67
2022/06/27 12:14:50;;;;;;;5.15;2.28;;;;;;;;;;5059965;28;20513;-67
2022/06/27 12:17:16;;;;;;;4.65;2.00;;;;;;;;;;5069103;28;20123;-67
2022/06/27 12:19:42;;;;;;;5.15;2.25;;;;;;;;;;5071787;28;20052;-67
2022/06/27 12:22:08;;;;;;;5.90;2.13;;;;;;;;;;5074265;28;20005;-67
2022/06/27 12:24:34;;;;;;;2.78;1.63;;;;;;;;;;5071301;28;20412;-67
2022/06/27 12:26:59;;;;;;;2.47;1.73;;;;;;;;;;5070258;28;20037;-67
2022/06/27 12:29:25;;;;;;;3.50;1.80;;;;;;;;;;5068892;28;20108;-68
2022/06/27 12:31:50;;;;;;;3.80;1.67;;;;;;;;;;5068644;28;20041;-67
2022/06/27 12:34:15;;;;;;;2.90;1.80;;;;;;;;;;5068202;28;20051;-68
2022/06/27 12:36:41;;;;;;;3.70;1.63;;;;;;;;;;5077456;28;20021;-67
2022/06/27 12:39:07;;;;;;;7.78;1.92;;;;;;;;;;5067660;28;20091;-67
2022/06/27 12:41:34;;;;;;;2.10;1.50;;;;;;;;;;5066017;28;20032;-67
2022/06/27 12:43:59;;;;;;;2.15;1.38;;;;;;;;;;5065926;28;20037;-67
2022/06/27 12:46:26;;;;;;;3.35;1.80;;;;;;;;;;5061987;28;20027;-67
2022/06/27 12:48:53;;;;;;;5.43;1.92;;;;;;;;;;5069122;28;20094;-67
2022/06/27 12:51:19;;;;;;;2.63;1.35;;;;;;;;;;5067980;28;20025;-68
2022/06/27 12:53:45;;;;;;;2.45;1.40;;;;;;;;;;5059942;28;20536;-68
2022/06/27 12:56:11;;;;;;;1.75;1.48;;;;;;;;;;5072708;28;20032;-68
2022/06/27 12:58:37;;;;;;;2.03;1.60;;;;;;;;;;5071822;28;20017;-68
2022/06/27 13:01:03;;;;;;;2.97;1.50;;;;;;;;;;5068117;28;20033;-68
2022/06/27 13:03:29;;;;;;;5.22;2.45;;;;;;;;;;5067565;28;20060;-67
2022/06/27 13:05:54;;;;;;;2.90;1.67;;;;;;;;;;5075019;28;20037;-67
2022/06/27 13:08:19;;;;;;;2.53;1.70;;;;;;;;;;5071260;28;20029;-67
2022/06/27 13:10:45;;;;;;;3.00;1.50;;;;;;;;;;5072762;28;20035;-67
2022/06/27 13:13:11;;;;;;;2.47;1.58;;;;;;;;;;5063793;28;20040;-67
2022/06/27 13:15:36;;;;;;;3.08;1.50;;;;;;;;;;5058277;28;20123;-67
2022/06/27 13:18:06;;;;;;;1.95;1.30;;;;;;;;;;5067465;28;20044;-67
2022/06/27 13:20:34;;;;;;;3.92;1.45;;;;;;;;;;5071937;28;20024;-67
2022/06/27 13:22:59;;;;;;;3.22;1.45;;;;;;;;;;5074700;28;20025;-67
2022/06/27 13:25:24;;;;;;;2.33;1.30;;;;;;;;;;5072398;28;20074;-67
2022/06/27 13:27:50;;;;;;;1.35;1.25;;;;;;;;;;5067805;28;20494;-68
2022/06/27 13:30:16;;;;;;;1.95;1.20;;;;;;;;;;5068137;28;20037;-67
2022/06/27 13:32:42;;;;;;;1.95;1.40;;;;;;;;;;5081592;28;20127;-68
2022/06/27 13:35:07;;;;;;;2.53;1.30;;;;;;;;;;5074317;28;20119;-67
2022/06/27 13:37:33;;;;;;;2.10;1.20;;;;;;;;;;5071181;28;20017;-67
2022/06/27 13:39:59;;;;;;;1.60;1.20;;;;;;;;;;5067844;28;20121;-68
2022/06/27 13:42:24;;;;;;;1.30;1.20;;;;;;;;;;5067398;28;20035;-67
2022/06/27 13:44:50;;;;;;;2.63;1.40;;;;;;;;;;5079788;28;20089;-68
2022/06/27 13:47:15;;;;;;;5.05;1.52;;;;;;;;;;5073527;28;20449;-68
2022/06/27 13:49:41;;;;;;;1.63;1.35;;;;;;;;;;5065287;28;20063;-67
2022/06/27 13:52:06;;;;;;;3.05;1.50;;;;;;;;;;5066183;28;20052;-68
2022/06/27 13:54:32;;;;;;;2.90;1.63;;;;;;;;;;5077252;28;20029;-68
2022/06/27 13:56:57;;;;;;;2.10;1.60;;;;;;;;;;5071627;28;20036;-68
2022/06/27 13:59:23;;;;;;;2.33;1.50;;;;;;;;;;5067428;28;20394;-68
2022/06/27 14:01:48;;;;;;;3.03;1.50;;;;;;;;;;5066773;28;20066;-68
2022/06/27 14:04:13;;;;;;;4.18;1.73;;;;;;;;;;5065347;28;20343;-68
2022/06/27 14:09:23;;;;;;;2.10;1.63;;;;;;;;;;5065201;28;20031;-67
2022/06/27 14:11:49;;;;;;;2.65;1.70;;;;;;;;;;5061177;28;20032;-68
2022/06/27 14:14:15;;;;;;;3.90;1.63;;;;;;;;;;5055734;28;20123;-69
2022/06/27 14:16:41;;;;;;;2.50;1.50;;;;;;;;;;5066417;28;20733;-68
2022/06/27 14:19:06;;;;;;;2.75;1.52;;;;;;;;;;5070653;28;20576;-69
2022/06/27 14:21:31;;;;;;;2.08;1.50;;;;;;;;;;5073376;28;20032;-68
2022/06/27 14:23:58;;;;;;;3.20;1.67;;;;;;;;;;5071640;28;20506;-68
2022/06/27 14:26:23;;;;;;;2.95;1.50;;;;;;;;;;5067717;28;20756;-68
2022/06/27 14:28:49;;;;;;;2.97;1.60;;;;;;;;;;5066920;28;20024;-68
2022/06/27 14:31:15;;;;;;;3.40;1.60;;;;;;;;;;5073353;28;20108;-68
2022/06/27 14:33:40;;;;;;;2.25;1.38;;;;;;;;;;5071087;28;20044;-68
2022/06/27 14:36:09;;;;;;;3.00;2.05;;;;;;;;;;5069830;28;20039;-68
2022/06/27 14:38:36;;;;;;;3.03;1.40;;;;;;;;;;5061165;28;20033;-68
2022/06/27 14:41:06;;;;;;;8.80;2.25;;;;;;;;;;5049931;28;20044;-68
2022/06/27 14:43:32;;;;;;;2.45;1.42;;;;;;;;;;5070692;28;20048;-69
2022/06/27 14:45:58;;;;;;;3.30;1.45;;;;;;;;;;5073970;28;20101;-68
2022/06/27 14:48:24;;;;;;;2.08;1.20;;;;;;;;;;5073580;28;20040;-68
2022/06/27 14:50:53;;;;;;;2.70;1.40;;;;;;;;;;5068601;28;20166;-68
2022/06/27 14:53:18;;;;;;;1.95;1.20;;;;;;;;;;5081082;28;20033;-69
2022/06/27 14:55:44;;;;;;;3.28;1.23;;;;;;;;;;5070746;28;20035;-68
2022/06/27 14:58:09;;;;;;;2.63;1.88;;;;;;;;;;5075968;28;20166;-69